Time;durP1;ratioP1;P1;durP2;ratioP2;P2;SDS_P1;SDS_P2;PMS_P1;PMS_P2;Temp;Humidity;BMP_temperature;BMP_pressure;BME280_temperature;BME280_humidity;BME280_pressure;Samples;Min_cycle;Max_cycle;Signal;HPM_P1;HPM_P2
2023/05/08 00:00:03;;;;;;;6.00;4.30;;;;;;;;;;10267296;28;20735;-82
2023/05/08 00:05:04;;;;;;;5.03;3.77;;;;;;;;;;10285588;28;20093;-82
2023/05/08 00:10:06;;;;;;;6.00;3.73;;;;;;;;;;10267527;28;20051;-82
2023/05/08 00:15:07;;;;;;;14.17;8.63;;;;;;;;;;10283837;28;20047;-82
2023/05/08 00:20:09;;;;;;;7.60;4.07;;;;;;;;;;10285017;28;20038;-83
2023/05/08 00:25:10;;;;;;;7.20;4.50;;;;;;;;;;10285197;28;20034;-82
2023/05/08 00:30:11;;;;;;;6.47;3.60;;;;;;;;;;10266540;28;20034;-82
2023/05/08 00:35:12;;;;;;;5.43;4.00;;;;;;;;;;10284635;28;20027;-82
2023/05/08 00:40:14;;;;;;;5.40;3.60;;;;;;;;;;10284659;28;20099;-83
2023/05/08 00:45:15;;;;;;;4.77;3.73;;;;;;;;;;10284069;28;20509;-82
2023/05/08 00:50:16;;;;;;;7.03;3.80;;;;;;;;;;10283590;28;20034;-81
2023/05/08 00:55:18;;;;;;;6.93;3.60;;;;;;;;;;10283799;28;20176;-81
2023/05/08 01:00:20;;;;;;;6.30;4.00;;;;;;;;;;10279613;28;20410;-82
2023/05/08 01:05:21;;;;;;;5.43;3.70;;;;;;;;;;10282605;28;20050;-83
2023/05/08 01:10:23;;;;;;;8.60;4.83;;;;;;;;;;10282117;28;20801;-81
2023/05/08 01:15:31;;;;;;;8.20;4.20;;;;;;;;;;10281579;28;20042;-82
2023/05/08 01:20:32;;;;;;;7.60;4.17;;;;;;;;;;10282551;28;20026;-82
2023/05/08 01:25:52;;;;;;;6.47;3.90;;;;;;;;;;10264298;28;20089;-82
2023/05/08 01:31:00;;;;;;;6.30;4.37;;;;;;;;;;10280967;28;20046;-82
2023/05/08 01:36:14;;;;;;;5.97;4.27;;;;;;;;;;10292558;28;20047;-82
2023/05/08 01:41:27;;;;;;;6.97;4.80;;;;;;;;;;10282133;28;20082;-82
2023/05/08 01:46:30;;;;;;;11.90;7.10;;;;;;;;;;10261316;28;20033;-82
2023/05/08 01:51:35;;;;;;;9.13;6.37;;;;;;;;;;10281372;28;20050;-82
2023/05/08 01:56:37;;;;;;;9.27;5.60;;;;;;;;;;10281250;28;20046;-81
2023/05/08 02:01:39;;;;;;;10.07;4.73;;;;;;;;;;10250029;28;20050;-82
2023/05/08 02:06:42;;;;;;;8.00;4.53;;;;;;;;;;10246229;28;20031;-81
2023/05/08 02:11:44;;;;;;;6.43;4.03;;;;;;;;;;10240859;28;20475;-82
2023/05/08 02:16:47;;;;;;;6.93;4.63;;;;;;;;;;10233177;28;20035;-82
2023/05/08 02:21:54;;;;;;;5.00;3.70;;;;;;;;;;10240498;29;20035;-82
2023/05/08 02:26:55;;;;;;;5.60;3.93;;;;;;;;;;10240278;29;20039;-81
2023/05/08 02:31:56;;;;;;;5.73;4.07;;;;;;;;;;10237597;28;20399;-82
2023/05/08 02:37:00;;;;;;;7.13;3.83;;;;;;;;;;10241044;28;20091;-81
2023/05/08 02:42:02;;;;;;;4.97;3.73;;;;;;;;;;10240450;28;20039;-81
2023/05/08 02:47:10;;;;;;;6.90;3.93;;;;;;;;;;10239922;28;20035;-81
2023/05/08 02:52:22;;;;;;;6.60;4.40;;;;;;;;;;10244603;28;20126;-82
2023/05/08 02:57:43;;;;;;;6.30;3.60;;;;;;;;;;10247825;28;20039;-81
2023/05/08 03:03:04;;;;;;;4.97;3.30;;;;;;;;;;10285371;28;20058;-82
2023/05/08 03:08:14;;;;;;;5.60;3.87;;;;;;;;;;10287080;28;20113;-81
2023/05/08 03:13:18;;;;;;;6.17;3.70;;;;;;;;;;10284157;28;20810;-79
2023/05/08 03:18:20;;;;;;;6.27;4.40;;;;;;;;;;10289031;28;20031;-80
2023/05/08 03:23:23;;;;;;;5.40;3.40;;;;;;;;;;10260508;28;20471;-80
2023/05/08 03:28:24;;;;;;;6.83;3.80;;;;;;;;;;10286233;28;20390;-81
2023/05/08 03:33:26;;;;;;;6.20;4.20;;;;;;;;;;10286976;28;20199;-82
2023/05/08 03:38:28;;;;;;;8.50;4.10;;;;;;;;;;10286730;28;20586;-81
2023/05/08 03:43:31;;;;;;;6.57;4.23;;;;;;;;;;10286510;28;20054;-81
2023/05/08 03:48:35;;;;;;;9.37;4.30;;;;;;;;;;10276069;28;20421;-81
2023/05/08 03:53:37;;;;;;;8.03;5.10;;;;;;;;;;10286283;28;20122;-82
2023/05/08 03:58:44;;;;;;;9.60;5.60;;;;;;;;;;10281168;28;20055;-80
2023/05/08 04:04:04;;;;;;;9.67;4.97;;;;;;;;;;10283541;28;20046;-80
2023/05/08 04:09:07;;;;;;;7.73;4.90;;;;;;;;;;10273860;28;20033;-80
2023/05/08 04:14:13;;;;;;;6.97;4.63;;;;;;;;;;10282674;28;20073;-81
2023/05/08 04:19:17;;;;;;;8.70;4.70;;;;;;;;;;10284800;28;20061;-80
2023/05/08 04:24:26;;;;;;;6.93;5.07;;;;;;;;;;10278685;28;20270;-82
2023/05/08 04:29:29;;;;;;;8.73;5.37;;;;;;;;;;10270832;28;20022;-82
2023/05/08 04:34:32;;;;;;;8.03;5.27;;;;;;;;;;10275276;28;20054;-82
2023/05/08 04:39:33;;;;;;;9.27;5.83;;;;;;;;;;10261287;28;20113;-81
2023/05/08 04:44:35;;;;;;;9.20;5.27;;;;;;;;;;10261207;28;20493;-81
2023/05/08 04:49:35;;;;;;;11.17;5.00;;;;;;;;;;10272940;28;20037;-80
2023/05/08 04:54:37;;;;;;;7.53;4.87;;;;;;;;;;10278751;28;20394;-83
2023/05/08 04:59:38;;;;;;;8.53;5.07;;;;;;;;;;10283116;28;20061;-82
2023/05/08 05:04:39;;;;;;;6.03;4.20;;;;;;;;;;10283491;28;20035;-79
2023/05/08 05:09:42;;;;;;;11.23;5.70;;;;;;;;;;10276613;28;20089;-79
2023/05/08 05:14:43;;;;;;;7.80;4.63;;;;;;;;;;10275496;28;20046;-80
2023/05/08 05:19:46;;;;;;;9.93;4.70;;;;;;;;;;10282915;28;20419;-80
2023/05/08 05:24:49;;;;;;;6.80;4.40;;;;;;;;;;10283004;28;20121;-80
2023/05/08 05:29:50;;;;;;;6.67;5.30;;;;;;;;;;10294499;28;20569;-82
2023/05/08 05:34:52;;;;;;;9.20;4.67;;;;;;;;;;10275727;28;20039;-80
2023/05/08 05:39:53;;;;;;;8.63;4.67;;;;;;;;;;10272041;28;20031;-80
2023/05/08 05:44:55;;;;;;;6.60;4.80;;;;;;;;;;10282377;28;20026;-81
2023/05/08 05:49:56;;;;;;;8.73;4.67;;;;;;;;;;10281226;28;20035;-82
2023/05/08 05:54:57;;;;;;;9.20;5.10;;;;;;;;;;10275611;28;20837;-82
2023/05/08 05:59:59;;;;;;;10.83;5.23;;;;;;;;;;10276208;28;20053;-81
2023/05/08 06:05:00;;;;;;;8.07;5.00;;;;;;;;;;10282076;28;20097;-82
2023/05/08 06:10:01;;;;;;;8.63;5.00;;;;;;;;;;10282708;28;20038;-81
2023/05/08 06:15:02;;;;;;;9.17;5.43;;;;;;;;;;10281605;28;20117;-82
2023/05/08 06:20:03;;;;;;;9.73;6.60;;;;;;;;;;10282055;28;20034;-82
2023/05/08 06:25:06;;;;;;;9.77;5.40;;;;;;;;;;10280835;28;20043;-80
2023/05/08 06:30:09;;;;;;;11.27;5.77;;;;;;;;;;10281181;28;20055;-83
2023/05/08 06:35:11;;;;;;;6.80;5.03;;;;;;;;;;10281104;28;20046;-80
2023/05/08 06:40:12;;;;;;;8.50;5.87;;;;;;;;;;10281151;28;20481;-81
2023/05/08 06:45:13;;;;;;;10.67;6.37;;;;;;;;;;10281102;28;20050;-80
2023/05/08 06:50:16;;;;;;;10.47;6.37;;;;;;;;;;10280775;28;20131;-81
2023/05/08 06:55:17;;;;;;;13.13;7.20;;;;;;;;;;10280656;28;20522;-81
2023/05/08 07:00:19;;;;;;;12.53;5.40;;;;;;;;;;10280407;28;20050;-81
2023/05/08 07:05:21;;;;;;;9.63;5.40;;;;;;;;;;10280915;28;20824;-82
2023/05/08 07:10:22;;;;;;;9.30;6.33;;;;;;;;;;10280599;28;20034;-80
2023/05/08 07:15:24;;;;;;;8.07;5.30;;;;;;;;;;10279829;28;20085;-80
2023/05/08 07:20:26;;;;;;;8.67;5.40;;;;;;;;;;10280191;28;20398;-81
2023/05/08 07:25:27;;;;;;;9.47;6.13;;;;;;;;;;10280179;28;20037;-83
2023/05/08 07:30:28;;;;;;;10.10;6.93;;;;;;;;;;10280054;28;20739;-81
2023/05/08 07:35:29;;;;;;;8.53;5.27;;;;;;;;;;10280520;28;20026;-83
2023/05/08 07:40:30;;;;;;;9.97;6.07;;;;;;;;;;10286750;28;20035;-81
2023/05/08 07:45:35;;;;;;;13.67;6.20;;;;;;;;;;10287252;28;20486;-80
2023/05/08 07:50:36;;;;;;;14.93;7.37;;;;;;;;;;10285011;28;20039;-80
2023/05/08 07:55:37;;;;;;;9.88;4.70;;;;;;;;;;10285973;28;20035;-82
2023/05/08 08:00:39;;;;;;;10.10;5.10;;;;;;;;;;10263474;28;20556;-83
2023/05/08 08:05:41;;;;;;;12.77;6.45;;;;;;;;;;10285531;28;20045;-80
2023/05/08 08:10:41;;;;;;;9.68;5.53;;;;;;;;;;10284599;28;20062;-82
2023/05/08 08:15:43;;;;;;;10.48;6.43;;;;;;;;;;10284847;28;20038;-79
2023/05/08 08:20:43;;;;;;;6.13;4.05;;;;;;;;;;10283347;28;20045;-80
2023/05/08 08:25:44;;;;;;;8.15;5.22;;;;;;;;;;10294778;28;20046;-79
2023/05/08 08:30:47;;;;;;;6.53;3.70;;;;;;;;;;10284489;28;20038;-80
2023/05/08 08:35:48;;;;;;;5.80;3.70;;;;;;;;;;10284389;28;20117;-80
2023/05/08 08:40:50;;;;;;;12.27;6.40;;;;;;;;;;10271119;28;20038;-79
2023/05/08 08:45:51;;;;;;;28.92;11.85;;;;;;;;;;10267916;28;20034;-79
2023/05/08 08:50:56;;;;;;;17.58;6.00;;;;;;;;;;10283730;28;20042;-82
2023/05/08 08:56:00;;;;;;;6.20;4.05;;;;;;;;;;10282759;28;20038;-79
2023/05/08 09:01:02;;;;;;;15.30;6.65;;;;;;;;;;10281678;28;20062;-83
2023/05/08 09:06:04;;;;;;;23.35;9.90;;;;;;;;;;10283431;28;20478;-79
2023/05/08 09:11:06;;;;;;;3.95;3.38;;;;;;;;;;10282709;28;20074;-81
2023/05/08 09:16:07;;;;;;;7.18;3.58;;;;;;;;;;10282381;28;20038;-79
2023/05/08 09:21:09;;;;;;;8.00;3.92;;;;;;;;;;10282757;28;20046;-79
2023/05/08 09:26:10;;;;;;;26.83;11.27;;;;;;;;;;10281861;28;20086;-80
2023/05/08 09:31:11;;;;;;;26.17;10.80;;;;;;;;;;10282365;28;20042;-81
2023/05/08 09:36:26;;;;;;;7.65;3.25;;;;;;;;;;10282006;28;20074;-79
2023/05/08 09:41:27;;;;;;;6.03;3.22;;;;;;;;;;10282040;28;20035;-79
2023/05/08 09:46:29;;;;;;;3.97;2.97;;;;;;;;;;10281840;28;20471;-81
2023/05/08 09:51:33;;;;;;;10.50;4.07;;;;;;;;;;10281031;28;20042;-80
2023/05/08 09:56:40;;;;;;;5.97;3.67;;;;;;;;;;10277109;28;20031;-81
2023/05/08 10:01:41;;;;;;;4.60;3.42;;;;;;;;;;10279913;28;20047;-80
2023/05/08 10:06:42;;;;;;;7.13;4.00;;;;;;;;;;10280586;28;20422;-83
2023/05/08 10:11:54;;;;;;;3.92;3.20;;;;;;;;;;10281749;28;20050;-80
2023/05/08 10:16:57;;;;;;;6.43;3.60;;;;;;;;;;10281504;28;20034;-81
2023/05/08 10:22:00;;;;;;;5.40;2.53;;;;;;;;;;10277152;28;20588;-80
2023/05/08 10:27:07;;;;;;;9.38;3.80;;;;;;;;;;10281953;28;20039;-82
2023/05/08 10:32:10;;;;;;;5.13;2.97;;;;;;;;;;10280726;28;20644;-82
2023/05/08 10:37:11;;;;;;;5.68;3.80;;;;;;;;;;10280659;28;20039;-81
2023/05/08 10:42:13;;;;;;;8.25;4.10;;;;;;;;;;10281131;28;20038;-80
2023/05/08 10:47:30;;;;;;;5.00;3.25;;;;;;;;;;10281221;28;20049;-81
2023/05/08 10:52:57;;;;;;;6.55;3.42;;;;;;;;;;10279406;28;20061;-82
2023/05/08 10:58:16;;;;;;;9.02;4.53;;;;;;;;;;10272394;28;20062;-81
2023/05/08 11:03:22;;;;;;;5.38;3.85;;;;;;;;;;10240728;29;20482;-81
2023/05/08 11:08:30;;;;;;;6.65;3.92;;;;;;;;;;10240926;29;20031;-81
2023/05/08 11:13:50;;;;;;;5.93;3.90;;;;;;;;;;10235636;28;20059;-81
2023/05/08 11:19:09;;;;;;;10.85;4.90;;;;;;;;;;10210547;29;20146;-80
2023/05/08 11:24:10;;;;;;;20.73;8.68;;;;;;;;;;10207445;29;20032;-81
2023/05/08 11:29:17;;;;;;;13.98;7.03;;;;;;;;;;10225042;29;20031;-80
2023/05/08 11:34:37;;;;;;;9.13;5.50;;;;;;;;;;10241047;28;20495;-81
2023/05/08 11:39:38;;;;;;;9.80;4.95;;;;;;;;;;10255738;28;20034;-82
2023/05/08 11:44:39;;;;;;;11.43;5.60;;;;;;;;;;10252025;28;20668;-82
2023/05/08 11:49:40;;;;;;;7.72;4.95;;;;;;;;;;10246710;29;20031;-80
2023/05/08 11:54:41;;;;;;;8.13;4.57;;;;;;;;;;10253927;28;20380;-80
2023/05/08 11:59:43;;;;;;;12.05;5.50;;;;;;;;;;10246468;29;20062;-82
2023/05/08 12:04:45;;;;;;;5.63;3.15;;;;;;;;;;10246603;29;20099;-80
2023/05/08 12:09:47;;;;;;;4.10;3.00;;;;;;;;;;10246651;29;20035;-82
2023/05/08 12:14:49;;;;;;;15.48;6.95;;;;;;;;;;10232770;28;20050;-82
2023/05/08 12:19:55;;;;;;;6.05;3.53;;;;;;;;;;10238156;29;20047;-80
2023/05/08 12:24:56;;;;;;;5.90;3.13;;;;;;;;;;10245320;28;20114;-83
2023/05/08 12:29:57;;;;;;;3.85;2.47;;;;;;;;;;10245652;29;20027;-82
2023/05/08 12:34:59;;;;;;;3.15;1.98;;;;;;;;;;10239266;29;20490;-83
2023/05/08 12:40:01;;;;;;;4.20;2.20;;;;;;;;;;10243645;28;20059;-80
2023/05/08 12:45:02;;;;;;;3.35;2.13;;;;;;;;;;10243209;28;20035;-80
2023/05/08 12:50:03;;;;;;;5.45;2.60;;;;;;;;;;10221323;29;20134;-80
2023/05/08 12:55:04;;;;;;;5.65;2.88;;;;;;;;;;10242911;28;20045;-80
2023/05/08 13:00:06;;;;;;;5.75;3.13;;;;;;;;;;10266488;28;20051;-80
2023/05/08 13:05:08;;;;;;;5.43;2.90;;;;;;;;;;10280544;28;20030;-80
2023/05/08 13:10:09;;;;;;;4.35;2.20;;;;;;;;;;10275514;28;20672;-80
2023/05/08 13:15:10;;;;;;;4.10;1.85;;;;;;;;;;10288187;28;20122;-81
2023/05/08 13:20:11;;;;;;;6.45;2.03;;;;;;;;;;10276628;28;20758;-80
2023/05/08 13:25:14;;;;;;;5.80;2.75;;;;;;;;;;10281188;28;20558;-80
2023/05/08 13:30:15;;;;;;;6.18;2.40;;;;;;;;;;10271324;28;20104;-82
2023/05/08 13:35:16;;;;;;;4.55;2.60;;;;;;;;;;10268604;28;20765;-81
2023/05/08 13:40:17;;;;;;;5.57;2.80;;;;;;;;;;10269712;28;20110;-81
2023/05/08 13:45:18;;;;;;;6.30;4.72;;;;;;;;;;10279832;28;20038;-82
2023/05/08 13:50:20;;;;;;;5.68;3.75;;;;;;;;;;10269664;28;20085;-82
2023/05/08 13:55:21;;;;;;;18.15;13.75;;;;;;;;;;10267251;28;20051;-81
2023/05/08 14:00:22;;;;;;;14.63;9.65;;;;;;;;;;10281872;28;20046;-81
2023/05/08 14:05:23;;;;;;;11.77;4.60;;;;;;;;;;10280938;28;20049;-82
2023/05/08 14:10:24;;;;;;;11.02;5.05;;;;;;;;;;10277499;28;20499;-81
2023/05/08 14:15:25;;;;;;;4.63;3.20;;;;;;;;;;10280878;28;20054;-81
2023/05/08 14:20:26;;;;;;;20.63;10.93;;;;;;;;;;10277322;28;20027;-83
2023/05/08 14:25:27;;;;;;;12.98;6.47;;;;;;;;;;10261565;28;20035;-82
2023/05/08 14:30:30;;;;;;;9.13;5.38;;;;;;;;;;10278822;28;20035;-82
2023/05/08 14:35:31;;;;;;;8.18;4.88;;;;;;;;;;10278834;28;20054;-82
2023/05/08 14:40:32;;;;;;;7.10;3.63;;;;;;;;;;10276043;28;20043;-84
2023/05/08 14:45:39;;;;;;;14.75;7.65;;;;;;;;;;10281895;28;20035;-83
2023/05/08 14:50:40;;;;;;;9.13;4.15;;;;;;;;;;10269164;28;20034;-82
2023/05/08 14:55:42;;;;;;;14.23;7.07;;;;;;;;;;10270859;28;20054;-81
2023/05/08 15:00:43;;;;;;;6.63;2.50;;;;;;;;;;10284261;28;20162;-81
2023/05/08 15:05:46;;;;;;;13.23;7.63;;;;;;;;;;10284533;28;20553;-81
2023/05/08 15:10:46;;;;;;;23.55;15.98;;;;;;;;;;10268316;28;20037;-80
2023/05/08 15:15:50;;;;;;;17.63;9.57;;;;;;;;;;10286632;28;20058;-82
2023/05/08 15:20:50;;;;;;;13.32;5.65;;;;;;;;;;10268658;28;20034;-83
2023/05/08 15:25:54;;;;;;;6.82;2.78;;;;;;;;;;10286390;28;20049;-82
2023/05/08 15:30:55;;;;;;;5.80;3.10;;;;;;;;;;10284099;28;20118;-82
2023/05/08 15:35:57;;;;;;;6.43;3.28;;;;;;;;;;10280755;28;20039;-85
2023/05/08 15:40:58;;;;;;;6.78;2.97;;;;;;;;;;10277593;28;20435;-81
2023/05/08 15:45:59;;;;;;;7.93;3.83;;;;;;;;;;10284724;28;20110;-82
2023/05/08 15:51:00;;;;;;;5.30;2.90;;;;;;;;;;10276220;28;20977;-79
2023/05/08 15:56:01;;;;;;;6.68;3.80;;;;;;;;;;10268032;28;20053;-82
2023/05/08 16:01:03;;;;;;;5.55;3.00;;;;;;;;;;10266614;28;20051;-81
2023/05/08 16:06:06;;;;;;;5.55;2.45;;;;;;;;;;10281396;28;20114;-80
2023/05/08 16:11:07;;;;;;;4.80;2.70;;;;;;;;;;10282779;28;20038;-83
2023/05/08 16:16:08;;;;;;;23.92;10.48;;;;;;;;;;10276552;28;20023;-85
2023/05/08 16:21:10;;;;;;;24.95;11.77;;;;;;;;;;10261272;28;20034;-81
2023/05/08 16:26:12;;;;;;;12.60;5.50;;;;;;;;;;10283887;28;20112;-82
2023/05/08 16:31:14;;;;;;;12.02;5.47;;;;;;;;;;10281549;28;20034;-82
2023/05/08 16:36:15;;;;;;;25.85;11.15;;;;;;;;;;10282143;28;20062;-81
2023/05/08 16:41:16;;;;;;;9.95;3.95;;;;;;;;;;10281907;28;20039;-81
2023/05/08 16:46:17;;;;;;;5.85;3.35;;;;;;;;;;10281784;28;20772;-81
2023/05/08 16:51:18;;;;;;;6.10;2.88;;;;;;;;;;10282155;28;20050;-81
2023/05/08 16:56:21;;;;;;;18.45;7.75;;;;;;;;;;10282330;28;20117;-82
2023/05/08 17:01:22;;;;;;;19.48;8.02;;;;;;;;;;10251238;28;20522;-79
2023/05/08 17:06:23;;;;;;;16.25;7.70;;;;;;;;;;10241417;29;20042;-82
2023/05/08 17:11:24;;;;;;;17.58;7.53;;;;;;;;;;10223993;28;20031;-82
2023/05/08 17:16:25;;;;;;;6.88;3.28;;;;;;;;;;10224155;28;20463;-81
2023/05/08 17:21:26;;;;;;;6.63;3.55;;;;;;;;;;10236535;28;20041;-82
2023/05/08 17:26:27;;;;;;;5.63;3.22;;;;;;;;;;10239492;28;20031;-80
2023/05/08 17:31:28;;;;;;;7.47;3.55;;;;;;;;;;10241606;29;20039;-80
2023/05/08 17:36:29;;;;;;;7.13;3.50;;;;;;;;;;10241607;29;20058;-81
2023/05/08 17:41:30;;;;;;;8.52;3.15;;;;;;;;;;10247834;28;20060;-82
2023/05/08 17:46:31;;;;;;;7.53;3.42;;;;;;;;;;10246949;28;20032;-81
2023/05/08 17:51:33;;;;;;;5.55;3.20;;;;;;;;;;10241892;28;20795;-81
2023/05/08 17:56:34;;;;;;;5.80;2.60;;;;;;;;;;10241530;29;20031;-80
2023/05/08 18:01:35;;;;;;;7.43;3.08;;;;;;;;;;10270318;28;20055;-81
2023/05/08 18:06:36;;;;;;;6.75;3.90;;;;;;;;;;10281182;28;20101;-81
2023/05/08 18:11:37;;;;;;;9.67;4.10;;;;;;;;;;10275616;28;20043;-81
2023/05/08 18:16:38;;;;;;;9.20;4.53;;;;;;;;;;10271623;28;20529;-81
2023/05/08 18:21:39;;;;;;;9.07;4.57;;;;;;;;;;10280351;28;20031;-83
2023/05/08 18:26:40;;;;;;;9.23;4.60;;;;;;;;;;10280184;28;20427;-81
2023/05/08 18:31:41;;;;;;;7.30;3.83;;;;;;;;;;10279088;28;20046;-81
2023/05/08 18:36:42;;;;;;;9.60;5.20;;;;;;;;;;10280483;28;20050;-82
2023/05/08 18:41:43;;;;;;;12.30;5.50;;;;;;;;;;10268655;28;20037;-81
2023/05/08 18:46:44;;;;;;;13.90;6.80;;;;;;;;;;10272523;28;20042;-81
2023/05/08 18:51:45;;;;;;;14.93;6.70;;;;;;;;;;10278953;28;20391;-81
2023/05/08 18:56:46;;;;;;;8.30;5.30;;;;;;;;;;10277359;28;20383;-81
2023/05/08 19:01:49;;;;;;;9.10;4.83;;;;;;;;;;10258832;28;20049;-80
2023/05/08 19:06:50;;;;;;;9.70;4.80;;;;;;;;;;10262607;28;20038;-82
2023/05/08 19:11:51;;;;;;;12.63;6.00;;;;;;;;;;10277836;28;20050;-80
2023/05/08 19:16:52;;;;;;;11.63;6.17;;;;;;;;;;10266950;28;20467;-80
2023/05/08 19:21:53;;;;;;;11.37;5.63;;;;;;;;;;10261434;28;20038;-81
2023/05/08 19:26:54;;;;;;;16.50;8.60;;;;;;;;;;10271241;28;20031;-80
2023/05/08 19:31:55;;;;;;;16.30;8.80;;;;;;;;;;10278057;28;20035;-82
2023/05/08 19:36:56;;;;;;;20.90;10.33;;;;;;;;;;10286590;28;20039;-80
2023/05/08 19:41:59;;;;;;;28.10;12.43;;;;;;;;;;10285613;28;20034;-80
2023/05/08 19:47:00;;;;;;;29.07;12.37;;;;;;;;;;10276489;28;20121;-81
2023/05/08 19:52:01;;;;;;;22.60;11.07;;;;;;;;;;10266458;28;20045;-80
2023/05/08 19:57:02;;;;;;;23.43;10.27;;;;;;;;;;10277511;28;20129;-80
2023/05/08 20:02:03;;;;;;;22.80;10.10;;;;;;;;;;10244579;28;20575;-81
2023/05/08 20:07:04;;;;;;;19.87;8.90;;;;;;;;;;10243720;29;20035;-79
2023/05/08 20:12:05;;;;;;;20.80;9.90;;;;;;;;;;10244240;28;20602;-80
2023/05/08 20:17:06;;;;;;;20.07;8.70;;;;;;;;;;10234876;28;20027;-79
2023/05/08 20:22:07;;;;;;;16.53;7.90;;;;;;;;;;10244215;28;20035;-79
2023/05/08 20:27:08;;;;;;;20.73;8.57;;;;;;;;;;10238960;28;20042;-78
2023/05/08 20:32:13;;;;;;;16.17;8.37;;;;;;;;;;10234918;29;20035;-79
2023/05/08 20:37:14;;;;;;;22.07;8.40;;;;;;;;;;10237183;28;20045;-79
2023/05/08 20:42:15;;;;;;;16.07;7.43;;;;;;;;;;10235488;28;20087;-80
2023/05/08 20:47:16;;;;;;;18.53;8.40;;;;;;;;;;10242940;29;20038;-80
2023/05/08 20:52:17;;;;;;;18.57;9.37;;;;;;;;;;10240570;28;20039;-79
2023/05/08 20:57:18;;;;;;;20.83;9.10;;;;;;;;;;10243584;29;20384;-80
2023/05/08 21:02:19;;;;;;;17.57;8.83;;;;;;;;;;10232386;28;20108;-80
2023/05/08 21:07:20;;;;;;;23.30;9.97;;;;;;;;;;10242269;28;20031;-80
2023/05/08 21:12:21;;;;;;;20.50;9.80;;;;;;;;;;10221410;29;20038;-80
2023/05/08 21:17:22;;;;;;;20.67;9.93;;;;;;;;;;10224642;29;20050;-81
2023/05/08 21:22:23;;;;;;;19.47;10.53;;;;;;;;;;10243145;29;20118;-81
2023/05/08 21:27:25;;;;;;;22.50;10.17;;;;;;;;;;10225903;29;20077;-80
2023/05/08 21:32:27;;;;;;;17.37;10.47;;;;;;;;;;10232487;29;20067;-81
2023/05/08 21:37:27;;;;;;;19.67;11.23;;;;;;;;;;10233439;29;20027;-80
2023/05/08 21:42:28;;;;;;;20.77;10.97;;;;;;;;;;10242244;28;20042;-80
2023/05/08 21:47:29;;;;;;;20.70;11.67;;;;;;;;;;10242003;28;20123;-80
2023/05/08 21:52:31;;;;;;;20.13;10.63;;;;;;;;;;10241116;28;20509;-81
2023/05/08 21:57:31;;;;;;;16.87;9.47;;;;;;;;;;10241019;28;20534;-80
2023/05/08 22:02:32;;;;;;;22.00;11.40;;;;;;;;;;10280688;28;20144;-81
2023/05/08 22:07:33;;;;;;;21.50;10.40;;;;;;;;;;10276278;28;20050;-80
2023/05/08 22:12:34;;;;;;;24.60;10.30;;;;;;;;;;10280975;28;20050;-80
2023/05/08 22:17:36;;;;;;;18.47;9.60;;;;;;;;;;10281358;28;20039;-80
2023/05/08 22:22:37;;;;;;;20.23;10.00;;;;;;;;;;10262541;28;20110;-80
2023/05/08 22:27:38;;;;;;;21.37;10.50;;;;;;;;;;10281160;28;20042;-81
2023/05/08 22:32:39;;;;;;;22.77;11.40;;;;;;;;;;10270266;28;20050;-80
2023/05/08 22:37:40;;;;;;;21.63;11.80;;;;;;;;;;10270772;28;20027;-81
2023/05/08 22:42:41;;;;;;;24.60;12.90;;;;;;;;;;10280604;28;20446;-81
2023/05/08 22:47:42;;;;;;;23.47;12.30;;;;;;;;;;10280519;28;20031;-81
2023/05/08 22:52:43;;;;;;;26.37;12.60;;;;;;;;;;10274446;28;20054;-80
2023/05/08 22:57:44;;;;;;;22.57;12.30;;;;;;;;;;10280274;28;20496;-80
2023/05/08 23:02:45;;;;;;;26.07;12.23;;;;;;;;;;10280567;28;20111;-80
2023/05/08 23:07:46;;;;;;;26.00;12.13;;;;;;;;;;10279790;28;20383;-81
2023/05/08 23:12:47;;;;;;;25.67;11.43;;;;;;;;;;10268641;28;20042;-81
2023/05/08 23:17:48;;;;;;;21.73;11.90;;;;;;;;;;10287865;28;20034;-81
2023/05/08 23:22:49;;;;;;;23.33;11.30;;;;;;;;;;10288110;28;20041;-82
2023/05/08 23:27:50;;;;;;;22.33;11.60;;;;;;;;;;10286737;28;20061;-80
2023/05/08 23:32:51;;;;;;;22.23;9.83;;;;;;;;;;10286439;28;20047;-80
2023/05/08 23:37:52;;;;;;;21.07;10.77;;;;;;;;;;10275960;28;20038;-80
2023/05/08 23:42:53;;;;;;;22.40;11.50;;;;;;;;;;10269010;28;20046;-80
2023/05/08 23:47:55;;;;;;;16.67;10.10;;;;;;;;;;10269390;28;20644;-80
2023/05/08 23:52:57;;;;;;;20.00;11.10;;;;;;;;;;10281532;28;20046;-81
2023/05/08 23:57:58;;;;;;;20.87;11.47;;;;;;;;;;10286490;28;20063;-80
